sensor_id;sensor_type;location;lat;lon;timestamp;pressure;altitude;pressure_sealevel;temperature
20289;BMP180;10303;51.960;8.372;2023-05-07T00:01:15;100604.00;;;18.50
20289;BMP180;10303;51.960;8.372;2023-05-07T00:03:41;100595.00;;;18.50
20289;BMP180;10303;51.960;8.372;2023-05-07T00:06:07;100608.00;;;18.40
20289;BMP180;10303;51.960;8.372;2023-05-07T00:08:33;100607.00;;;18.40
20289;BMP180;10303;51.960;8.372;2023-05-07T00:10:59;100604.00;;;18.40
20289;BMP180;10303;51.960;8.372;2023-05-07T00:13:25;100612.00;;;18.40
20289;BMP180;10303;51.960;8.372;2023-05-07T00:15:51;100605.00;;;18.40
20289;BMP180;10303;51.960;8.372;2023-05-07T00:18:17;100612.00;;;18.30
20289;BMP180;10303;51.960;8.372;2023-05-07T00:20:46;100620.00;;;18.30
20289;BMP180;10303;51.960;8.372;2023-05-07T00:23:12;100624.00;;;18.30
20289;BMP180;10303;51.960;8.372;2023-05-07T00:25:38;100629.00;;;18.30
20289;BMP180;10303;51.960;8.372;2023-05-07T00:28:04;100624.00;;;18.30
20289;BMP180;10303;51.960;8.372;2023-05-07T00:30:30;100629.00;;;18.20
20289;BMP180;10303;51.960;8.372;2023-05-07T00:32:56;100622.00;;;18.20
20289;BMP180;10303;51.960;8.372;2023-05-07T00:35:22;100627.00;;;18.20
20289;BMP180;10303;51.960;8.372;2023-05-07T00:37:48;100617.00;;;18.20
20289;BMP180;10303;51.960;8.372;2023-05-07T00:40:14;100623.00;;;18.10
20289;BMP180;10303;51.960;8.372;2023-05-07T00:42:40;100623.00;;;18.10
20289;BMP180;10303;51.960;8.372;2023-05-07T00:45:07;100614.00;;;18.10
20289;BMP180;10303;51.960;8.372;2023-05-07T00:47:33;100620.00;;;18.00
20289;BMP180;10303;51.960;8.372;2023-05-07T00:49:59;100619.00;;;18.00
20289;BMP180;10303;51.960;8.372;2023-05-07T00:52:26;100627.00;;;18.00
20289;BMP180;10303;51.960;8.372;2023-05-07T00:54:53;100626.00;;;18.00
20289;BMP180;10303;51.960;8.372;2023-05-07T00:57:21;100626.00;;;18.00
20289;BMP180;10303;51.960;8.372;2023-05-07T00:59:48;100627.00;;;17.90
20289;BMP180;10303;51.960;8.372;2023-05-07T01:02:15;100625.00;;;17.90
20289;BMP180;10303;51.960;8.372;2023-05-07T01:04:41;100624.00;;;17.90
20289;BMP180;10303;51.960;8.372;2023-05-07T01:07:08;100637.00;;;17.90
20289;BMP180;10303;51.960;8.372;2023-05-07T01:09:35;100644.00;;;17.90
20289;BMP180;10303;51.960;8.372;2023-05-07T01:12:02;100641.00;;;17.90
20289;BMP180;10303;51.960;8.372;2023-05-07T01:14:29;100633.00;;;17.90
20289;BMP180;10303;51.960;8.372;2023-05-07T01:16:56;100631.00;;;17.80
20289;BMP180;10303;51.960;8.372;2023-05-07T01:19:24;100635.00;;;17.80
20289;BMP180;10303;51.960;8.372;2023-05-07T01:21:51;100637.00;;;17.80
20289;BMP180;10303;51.960;8.372;2023-05-07T01:24:20;100638.00;;;17.80
20289;BMP180;10303;51.960;8.372;2023-05-07T01:26:47;100636.00;;;17.70
20289;BMP180;10303;51.960;8.372;2023-05-07T01:29:15;100635.00;;;17.70
20289;BMP180;10303;51.960;8.372;2023-05-07T01:31:42;100622.00;;;17.70
20289;BMP180;10303;51.960;8.372;2023-05-07T01:34:11;100621.00;;;17.70
20289;BMP180;10303;51.960;8.372;2023-05-07T01:36:40;100624.00;;;17.70
20289;BMP180;10303;51.960;8.372;2023-05-07T01:39:09;100626.00;;;17.60
20289;BMP180;10303;51.960;8.372;2023-05-07T01:41:37;100629.00;;;17.60
20289;BMP180;10303;51.960;8.372;2023-05-07T01:44:03;100621.00;;;17.60
20289;BMP180;10303;51.960;8.372;2023-05-07T01:46:32;100618.00;;;17.60
20289;BMP180;10303;51.960;8.372;2023-05-07T01:48:59;100622.00;;;17.60
20289;BMP180;10303;51.960;8.372;2023-05-07T01:51:25;100626.00;;;17.50
20289;BMP180;10303;51.960;8.372;2023-05-07T01:53:53;100626.00;;;17.50
20289;BMP180;10303;51.960;8.372;2023-05-07T01:56:20;100619.00;;;17.50
20289;BMP180;10303;51.960;8.372;2023-05-07T01:58:47;100618.00;;;17.50
20289;BMP180;10303;51.960;8.372;2023-05-07T02:01:14;100621.00;;;17.40
20289;BMP180;10303;51.960;8.372;2023-05-07T02:03:40;100625.00;;;17.40
20289;BMP180;10303;51.960;8.372;2023-05-07T02:06:13;100622.00;;;17.40
20289;BMP180;10303;51.960;8.372;2023-05-07T02:08:39;100615.00;;;17.40
20289;BMP180;10303;51.960;8.372;2023-05-07T02:11:06;100631.00;;;17.30
20289;BMP180;10303;51.960;8.372;2023-05-07T02:13:33;100628.00;;;17.30
20289;BMP180;10303;51.960;8.372;2023-05-07T02:16:03;100631.00;;;17.30
20289;BMP180;10303;51.960;8.372;2023-05-07T02:18:29;100632.00;;;17.30
20289;BMP180;10303;51.960;8.372;2023-05-07T02:20:55;100642.00;;;17.20
20289;BMP180;10303;51.960;8.372;2023-05-07T02:23:22;100640.00;;;17.20
20289;BMP180;10303;51.960;8.372;2023-05-07T02:25:48;100634.00;;;17.20
20289;BMP180;10303;51.960;8.372;2023-05-07T02:28:14;100635.00;;;17.20
20289;BMP180;10303;51.960;8.372;2023-05-07T02:30:53;100639.00;;;17.20
20289;BMP180;10303;51.960;8.372;2023-05-07T02:33:21;100624.00;;;17.10
20289;BMP180;10303;51.960;8.372;2023-05-07T02:35:48;100623.00;;;17.10
20289;BMP180;10303;51.960;8.372;2023-05-07T02:38:15;100629.00;;;17.00
20289;BMP180;10303;51.960;8.372;2023-05-07T02:40:41;100623.00;;;17.00
20289;BMP180;10303;51.960;8.372;2023-05-07T02:43:07;100634.00;;;17.00
20289;BMP180;10303;51.960;8.372;2023-05-07T02:45:34;100627.00;;;17.00
20289;BMP180;10303;51.960;8.372;2023-05-07T02:48:01;100630.00;;;17.00
20289;BMP180;10303;51.960;8.372;2023-05-07T02:50:27;100637.00;;;17.00
20289;BMP180;10303;51.960;8.372;2023-05-07T02:52:55;100643.00;;;16.90
20289;BMP180;10303;51.960;8.372;2023-05-07T02:55:21;100639.00;;;16.90
20289;BMP180;10303;51.960;8.372;2023-05-07T02:57:47;100641.00;;;16.90
20289;BMP180;10303;51.960;8.372;2023-05-07T03:00:18;100643.00;;;16.90
20289;BMP180;10303;51.960;8.372;2023-05-07T03:03:00;100648.00;;;16.90
20289;BMP180;10303;51.960;8.372;2023-05-07T03:05:26;100641.00;;;16.90
20289;BMP180;10303;51.960;8.372;2023-05-07T03:07:52;100638.00;;;16.90
20289;BMP180;10303;51.960;8.372;2023-05-07T03:10:18;100637.00;;;16.80
20289;BMP180;10303;51.960;8.372;2023-05-07T03:12:44;100636.00;;;16.80
20289;BMP180;10303;51.960;8.372;2023-05-07T03:15:15;100635.00;;;16.80
20289;BMP180;10303;51.960;8.372;2023-05-07T03:17:42;100625.00;;;16.80
20289;BMP180;10303;51.960;8.372;2023-05-07T03:20:09;100630.00;;;16.80
20289;BMP180;10303;51.960;8.372;2023-05-07T03:22:35;100630.00;;;16.80
20289;BMP180;10303;51.960;8.372;2023-05-07T03:25:02;100617.00;;;16.80
20289;BMP180;10303;51.960;8.372;2023-05-07T03:27:28;100610.00;;;16.70
20289;BMP180;10303;51.960;8.372;2023-05-07T03:29:54;100612.00;;;16.70
20289;BMP180;10303;51.960;8.372;2023-05-07T03:32:20;100620.00;;;16.70
20289;BMP180;10303;51.960;8.372;2023-05-07T03:34:47;100611.00;;;16.70
20289;BMP180;10303;51.960;8.372;2023-05-07T03:37:14;100623.00;;;16.70
20289;BMP180;10303;51.960;8.372;2023-05-07T03:39:43;100617.00;;;16.70
20289;BMP180;10303;51.960;8.372;2023-05-07T03:42:09;100613.00;;;16.60
20289;BMP180;10303;51.960;8.372;2023-05-07T03:44:36;100622.00;;;16.60
20289;BMP180;10303;51.960;8.372;2023-05-07T03:47:04;100627.00;;;16.60
20289;BMP180;10303;51.960;8.372;2023-05-07T03:49:31;100637.00;;;16.60
20289;BMP180;10303;51.960;8.372;2023-05-07T03:51:58;100644.00;;;16.60
20289;BMP180;10303;51.960;8.372;2023-05-07T03:54:24;100653.00;;;16.60
20289;BMP180;10303;51.960;8.372;2023-05-07T03:56:50;100646.00;;;16.60
20289;BMP180;10303;51.960;8.372;2023-05-07T03:59:18;100639.00;;;16.60
20289;BMP180;10303;51.960;8.372;2023-05-07T04:01:45;100645.00;;;16.60
20289;BMP180;10303;51.960;8.372;2023-05-07T04:04:16;100654.00;;;16.50
20289;BMP180;10303;51.960;8.372;2023-05-07T04:06:42;100663.00;;;16.50
20289;BMP180;10303;51.960;8.372;2023-05-07T04:09:08;100659.00;;;16.50
20289;BMP180;10303;51.960;8.372;2023-05-07T04:11:36;100670.00;;;16.50
20289;BMP180;10303;51.960;8.372;2023-05-07T04:14:03;100655.00;;;16.50
20289;BMP180;10303;51.960;8.372;2023-05-07T04:16:29;100662.00;;;16.50
20289;BMP180;10303;51.960;8.372;2023-05-07T04:18:55;100656.00;;;16.50
20289;BMP180;10303;51.960;8.372;2023-05-07T04:21:22;100658.00;;;16.50
20289;BMP180;10303;51.960;8.372;2023-05-07T04:23:50;100666.00;;;16.50
20289;BMP180;10303;51.960;8.372;2023-05-07T04:26:16;100668.00;;;16.50
20289;BMP180;10303;51.960;8.372;2023-05-07T04:28:44;100684.00;;;16.50
20289;BMP180;10303;51.960;8.372;2023-05-07T04:31:10;100670.00;;;16.50
20289;BMP180;10303;51.960;8.372;2023-05-07T04:33:37;100676.00;;;16.50
20289;BMP180;10303;51.960;8.372;2023-05-07T04:36:06;100669.00;;;16.50
20289;BMP180;10303;51.960;8.372;2023-05-07T04:38:37;100663.00;;;16.50
20289;BMP180;10303;51.960;8.372;2023-05-07T04:41:06;100682.00;;;16.50
20289;BMP180;10303;51.960;8.372;2023-05-07T04:43:36;100678.00;;;16.50
20289;BMP180;10303;51.960;8.372;2023-05-07T04:46:02;100674.00;;;16.60
20289;BMP180;10303;51.960;8.372;2023-05-07T04:48:29;100673.00;;;16.50
20289;BMP180;10303;51.960;8.372;2023-05-07T04:50:57;100666.00;;;16.60
20289;BMP180;10303;51.960;8.372;2023-05-07T04:53:23;100659.00;;;16.60
20289;BMP180;10303;51.960;8.372;2023-05-07T04:55:56;100659.00;;;16.60
20289;BMP180;10303;51.960;8.372;2023-05-07T04:58:31;100676.00;;;16.60
20289;BMP180;10303;51.960;8.372;2023-05-07T05:00:58;100667.00;;;16.60
20289;BMP180;10303;51.960;8.372;2023-05-07T05:03:25;100679.00;;;16.60
20289;BMP180;10303;51.960;8.372;2023-05-07T05:05:51;100678.00;;;16.60
20289;BMP180;10303;51.960;8.372;2023-05-07T05:08:19;100681.00;;;16.70
20289;BMP180;10303;51.960;8.372;2023-05-07T05:10:45;100681.00;;;16.70
20289;BMP180;10303;51.960;8.372;2023-05-07T05:13:11;100686.00;;;16.70
20289;BMP180;10303;51.960;8.372;2023-05-07T05:15:39;100695.00;;;16.80
20289;BMP180;10303;51.960;8.372;2023-05-07T05:18:05;100693.00;;;16.80
20289;BMP180;10303;51.960;8.372;2023-05-07T05:20:31;100688.00;;;16.80
20289;BMP180;10303;51.960;8.372;2023-05-07T05:22:58;100683.00;;;16.80
20289;BMP180;10303;51.960;8.372;2023-05-07T05:25:23;100687.00;;;16.90
20289;BMP180;10303;51.960;8.372;2023-05-07T05:27:49;100686.00;;;16.90
20289;BMP180;10303;51.960;8.372;2023-05-07T05:30:16;100681.00;;;17.00
20289;BMP180;10303;51.960;8.372;2023-05-07T05:32:45;100691.00;;;17.00
20289;BMP180;10303;51.960;8.372;2023-05-07T05:35:11;100694.00;;;17.00
20289;BMP180;10303;51.960;8.372;2023-05-07T05:37:38;100689.00;;;17.10
20289;BMP180;10303;51.960;8.372;2023-05-07T05:40:07;100684.00;;;17.10
20289;BMP180;10303;51.960;8.372;2023-05-07T05:42:33;100693.00;;;17.20
20289;BMP180;10303;51.960;8.372;2023-05-07T05:44:59;100691.00;;;17.20
20289;BMP180;10303;51.960;8.372;2023-05-07T05:47:26;100702.00;;;17.20
20289;BMP180;10303;51.960;8.372;2023-05-07T05:49:54;100699.00;;;17.30
20289;BMP180;10303;51.960;8.372;2023-05-07T05:52:21;100709.00;;;17.30
20289;BMP180;10303;51.960;8.372;2023-05-07T05:54:50;100709.00;;;17.40
20289;BMP180;10303;51.960;8.372;2023-05-07T05:57:16;100704.00;;;17.40
20289;BMP180;10303;51.960;8.372;2023-05-07T05:59:44;100703.00;;;17.50
20289;BMP180;10303;51.960;8.372;2023-05-07T06:02:10;100699.00;;;17.50
20289;BMP180;10303;51.960;8.372;2023-05-07T06:04:37;100707.00;;;17.60
20289;BMP180;10303;51.960;8.372;2023-05-07T06:07:03;100705.00;;;17.60
20289;BMP180;10303;51.960;8.372;2023-05-07T06:09:29;100706.00;;;17.70
20289;BMP180;10303;51.960;8.372;2023-05-07T06:11:55;100714.00;;;17.70
20289;BMP180;10303;51.960;8.372;2023-05-07T06:14:21;100706.00;;;17.70
20289;BMP180;10303;51.960;8.372;2023-05-07T06:16:48;100717.00;;;17.80
20289;BMP180;10303;51.960;8.372;2023-05-07T06:19:14;100708.00;;;17.80
20289;BMP180;10303;51.960;8.372;2023-05-07T06:21:41;100718.00;;;17.80
20289;BMP180;10303;51.960;8.372;2023-05-07T06:24:07;100716.00;;;17.90
20289;BMP180;10303;51.960;8.372;2023-05-07T06:26:33;100719.00;;;17.90
20289;BMP180;10303;51.960;8.372;2023-05-07T06:28:59;100712.00;;;18.00
20289;BMP180;10303;51.960;8.372;2023-05-07T06:31:30;100728.00;;;18.00
20289;BMP180;10303;51.960;8.372;2023-05-07T06:34:07;100722.00;;;18.00
20289;BMP180;10303;51.960;8.372;2023-05-07T06:36:36;100728.00;;;18.00
20289;BMP180;10303;51.960;8.372;2023-05-07T06:39:11;100738.00;;;18.10
20289;BMP180;10303;51.960;8.372;2023-05-07T06:41:37;100731.00;;;18.10
20289;BMP180;10303;51.960;8.372;2023-05-07T06:44:08;100738.00;;;18.20
20289;BMP180;10303;51.960;8.372;2023-05-07T06:46:42;100737.00;;;18.20
20289;BMP180;10303;51.960;8.372;2023-05-07T06:49:08;100736.00;;;18.30
20289;BMP180;10303;51.960;8.372;2023-05-07T06:51:34;100741.00;;;18.30
20289;BMP180;10303;51.960;8.372;2023-05-07T06:54:02;100746.00;;;18.30
20289;BMP180;10303;51.960;8.372;2023-05-07T06:56:31;100753.00;;;18.40
20289;BMP180;10303;51.960;8.372;2023-05-07T06:58:59;100747.00;;;18.50
20289;BMP180;10303;51.960;8.372;2023-05-07T07:01:26;100751.00;;;18.60
20289;BMP180;10303;51.960;8.372;2023-05-07T07:03:52;100754.00;;;18.70
20289;BMP180;10303;51.960;8.372;2023-05-07T07:06:20;100740.00;;;18.70
20289;BMP180;10303;51.960;8.372;2023-05-07T07:08:46;100748.00;;;18.80
20289;BMP180;10303;51.960;8.372;2023-05-07T07:11:15;100755.00;;;18.80
20289;BMP180;10303;51.960;8.372;2023-05-07T07:13:41;100758.00;;;18.90
20289;BMP180;10303;51.960;8.372;2023-05-07T07:16:09;100760.00;;;18.90
20289;BMP180;10303;51.960;8.372;2023-05-07T07:18:35;100759.00;;;19.00
20289;BMP180;10303;51.960;8.372;2023-05-07T07:21:02;100756.00;;;19.00
20289;BMP180;10303;51.960;8.372;2023-05-07T07:23:28;100766.00;;;19.10
20289;BMP180;10303;51.960;8.372;2023-05-07T07:25:54;100762.00;;;19.10
20289;BMP180;10303;51.960;8.372;2023-05-07T07:28:21;100767.00;;;19.20
20289;BMP180;10303;51.960;8.372;2023-05-07T07:30:48;100763.00;;;19.20
20289;BMP180;10303;51.960;8.372;2023-05-07T07:33:15;100774.00;;;19.30
20289;BMP180;10303;51.960;8.372;2023-05-07T07:35:42;100763.00;;;19.30
20289;BMP180;10303;51.960;8.372;2023-05-07T07:38:09;100762.00;;;19.30
20289;BMP180;10303;51.960;8.372;2023-05-07T07:40:36;100768.00;;;19.40
20289;BMP180;10303;51.960;8.372;2023-05-07T07:43:04;100765.00;;;19.40
20289;BMP180;10303;51.960;8.372;2023-05-07T07:45:31;100768.00;;;19.40
20289;BMP180;10303;51.960;8.372;2023-05-07T07:47:57;100768.00;;;19.40
20289;BMP180;10303;51.960;8.372;2023-05-07T07:50:23;100769.00;;;19.50
20289;BMP180;10303;51.960;8.372;2023-05-07T07:52:49;100767.00;;;19.50
20289;BMP180;10303;51.960;8.372;2023-05-07T07:55:20;100764.00;;;19.50
20289;BMP180;10303;51.960;8.372;2023-05-07T07:57:50;100764.00;;;19.60
20289;BMP180;10303;51.960;8.372;2023-05-07T08:00:16;100754.00;;;19.60
20289;BMP180;10303;51.960;8.372;2023-05-07T08:02:43;100754.00;;;19.70
20289;BMP180;10303;51.960;8.372;2023-05-07T08:05:12;100765.00;;;19.70
20289;BMP180;10303;51.960;8.372;2023-05-07T08:07:38;100765.00;;;19.80
20289;BMP180;10303;51.960;8.372;2023-05-07T08:10:05;100761.00;;;19.80
20289;BMP180;10303;51.960;8.372;2023-05-07T08:12:31;100756.00;;;19.90
20289;BMP180;10303;51.960;8.372;2023-05-07T08:14:58;100762.00;;;19.90
20289;BMP180;10303;51.960;8.372;2023-05-07T08:17:24;100757.00;;;19.90
20289;BMP180;10303;51.960;8.372;2023-05-07T08:19:50;100756.00;;;20.00
20289;BMP180;10303;51.960;8.372;2023-05-07T08:22:16;100758.00;;;20.00
20289;BMP180;10303;51.960;8.372;2023-05-07T08:24:44;100757.00;;;20.00
20289;BMP180;10303;51.960;8.372;2023-05-07T08:27:11;100767.00;;;20.10
20289;BMP180;10303;51.960;8.372;2023-05-07T08:29:39;100765.00;;;20.10
20289;BMP180;10303;51.960;8.372;2023-05-07T08:32:05;100766.00;;;20.20
20289;BMP180;10303;51.960;8.372;2023-05-07T08:34:31;100766.00;;;20.20
20289;BMP180;10303;51.960;8.372;2023-05-07T08:37:00;100766.00;;;20.30
20289;BMP180;10303;51.960;8.372;2023-05-07T08:39:26;100762.00;;;20.40
20289;BMP180;10303;51.960;8.372;2023-05-07T08:41:55;100760.00;;;20.50
20289;BMP180;10303;51.960;8.372;2023-05-07T08:44:26;100764.00;;;20.60
20289;BMP180;10303;51.960;8.372;2023-05-07T08:46:58;100761.00;;;20.70
20289;BMP180;10303;51.960;8.372;2023-05-07T08:49:27;100762.00;;;20.80
20289;BMP180;10303;51.960;8.372;2023-05-07T08:51:54;100769.00;;;20.90
20289;BMP180;10303;51.960;8.372;2023-05-07T08:54:21;100770.00;;;21.00
20289;BMP180;10303;51.960;8.372;2023-05-07T08:56:48;100780.00;;;21.10
20289;BMP180;10303;51.960;8.372;2023-05-07T08:59:15;100784.00;;;21.20
20289;BMP180;10303;51.960;8.372;2023-05-07T09:01:42;100785.00;;;21.30
20289;BMP180;10303;51.960;8.372;2023-05-07T09:04:09;100779.00;;;21.40
20289;BMP180;10303;51.960;8.372;2023-05-07T09:06:36;100777.00;;;21.40
20289;BMP180;10303;51.960;8.372;2023-05-07T09:09:09;100771.00;;;21.50
20289;BMP180;10303;51.960;8.372;2023-05-07T09:11:35;100780.00;;;21.60
20289;BMP180;10303;51.960;8.372;2023-05-07T09:14:02;100782.00;;;21.70
20289;BMP180;10303;51.960;8.372;2023-05-07T09:16:33;100780.00;;;21.80
20289;BMP180;10303;51.960;8.372;2023-05-07T09:19:00;100777.00;;;22.00
20289;BMP180;10303;51.960;8.372;2023-05-07T09:21:27;100776.00;;;22.10
20289;BMP180;10303;51.960;8.372;2023-05-07T09:23:56;100781.00;;;22.20
20289;BMP180;10303;51.960;8.372;2023-05-07T09:26:29;100779.00;;;22.30
20289;BMP180;10303;51.960;8.372;2023-05-07T09:28:55;100777.00;;;22.50
20289;BMP180;10303;51.960;8.372;2023-05-07T09:31:21;100773.00;;;22.60
20289;BMP180;10303;51.960;8.372;2023-05-07T09:33:49;100776.00;;;22.70
20289;BMP180;10303;51.960;8.372;2023-05-07T09:36:16;100770.00;;;22.90
20289;BMP180;10303;51.960;8.372;2023-05-07T09:38:45;100773.00;;;23.00
20289;BMP180;10303;51.960;8.372;2023-05-07T09:41:13;100773.00;;;23.10
20289;BMP180;10303;51.960;8.372;2023-05-07T09:44:01;100781.00;;;23.30
20289;BMP180;10303;51.960;8.372;2023-05-07T09:46:38;100771.00;;;23.40
20289;BMP180;10303;51.960;8.372;2023-05-07T09:49:22;100780.00;;;23.50
20289;BMP180;10303;51.960;8.372;2023-05-07T09:51:52;100775.00;;;23.70
20289;BMP180;10303;51.960;8.372;2023-05-07T09:54:20;100770.00;;;23.80
20289;BMP180;10303;51.960;8.372;2023-05-07T09:56:52;100767.00;;;23.90
20289;BMP180;10303;51.960;8.372;2023-05-07T09:59:25;100767.00;;;24.00
20289;BMP180;10303;51.960;8.372;2023-05-07T10:01:56;100775.00;;;24.00
20289;BMP180;10303;51.960;8.372;2023-05-07T10:04:23;100771.00;;;24.10
20289;BMP180;10303;51.960;8.372;2023-05-07T10:06:51;100774.00;;;24.20
20289;BMP180;10303;51.960;8.372;2023-05-07T10:09:19;100785.00;;;24.30
20289;BMP180;10303;51.960;8.372;2023-05-07T10:11:49;100787.00;;;24.30
20289;BMP180;10303;51.960;8.372;2023-05-07T10:14:15;100782.00;;;24.40
20289;BMP180;10303;51.960;8.372;2023-05-07T10:16:43;100786.00;;;24.50
20289;BMP180;10303;51.960;8.372;2023-05-07T10:19:15;100792.00;;;24.70
20289;BMP180;10303;51.960;8.372;2023-05-07T10:22:05;100781.00;;;24.70
20289;BMP180;10303;51.960;8.372;2023-05-07T10:24:36;100792.00;;;24.90
20289;BMP180;10303;51.960;8.372;2023-05-07T10:27:11;100785.00;;;24.90
20289;BMP180;10303;51.960;8.372;2023-05-07T10:32:42;100796.00;;;25.10
20289;BMP180;10303;51.960;8.372;2023-05-07T10:35:22;100786.00;;;25.20
20289;BMP180;10303;51.960;8.372;2023-05-07T10:37:49;100789.00;;;25.20
20289;BMP180;10303;51.960;8.372;2023-05-07T10:40:16;100789.00;;;25.30
20289;BMP180;10303;51.960;8.372;2023-05-07T10:43:13;100795.00;;;25.30
20289;BMP180;10303;51.960;8.372;2023-05-07T10:46:20;100796.00;;;25.40
20289;BMP180;10303;51.960;8.372;2023-05-07T10:51:30;100805.00;;;25.60
20289;BMP180;10303;51.960;8.372;2023-05-07T10:56:43;100797.00;;;25.90
20289;BMP180;10303;51.960;8.372;2023-05-07T11:02:03;100797.00;;;26.10
20289;BMP180;10303;51.960;8.372;2023-05-07T11:04:41;100800.00;;;26.20
20289;BMP180;10303;51.960;8.372;2023-05-07T11:07:29;100794.00;;;26.40
20289;BMP180;10303;51.960;8.372;2023-05-07T11:10:10;100795.00;;;26.60
20289;BMP180;10303;51.960;8.372;2023-05-07T11:12:53;100800.00;;;26.70
20289;BMP180;10303;51.960;8.372;2023-05-07T11:15:41;100796.00;;;26.90
20289;BMP180;10303;51.960;8.372;2023-05-07T11:18:18;100791.00;;;27.10
20289;BMP180;10303;51.960;8.372;2023-05-07T11:20:57;100789.00;;;27.20
20289;BMP180;10303;51.960;8.372;2023-05-07T11:26:50;100790.00;;;27.60
20289;BMP180;10303;51.960;8.372;2023-05-07T11:29:21;100792.00;;;27.70
20289;BMP180;10303;51.960;8.372;2023-05-07T11:31:54;100790.00;;;27.80
20289;BMP180;10303;51.960;8.372;2023-05-07T11:34:25;100790.00;;;27.80
20289;BMP180;10303;51.960;8.372;2023-05-07T11:36:55;100787.00;;;27.80
20289;BMP180;10303;51.960;8.372;2023-05-07T11:39:32;100788.00;;;27.70
20289;BMP180;10303;51.960;8.372;2023-05-07T11:42:02;100787.00;;;27.60
20289;BMP180;10303;51.960;8.372;2023-05-07T11:44:44;100783.00;;;27.50
20289;BMP180;10303;51.960;8.372;2023-05-07T11:47:17;100783.00;;;27.50
20289;BMP180;10303;51.960;8.372;2023-05-07T11:49:46;100785.00;;;27.50
20289;BMP180;10303;51.960;8.372;2023-05-07T11:52:14;100787.00;;;27.40
20289;BMP180;10303;51.960;8.372;2023-05-07T11:54:40;100774.00;;;27.40
20289;BMP180;10303;51.960;8.372;2023-05-07T11:57:06;100784.00;;;27.40
20289;BMP180;10303;51.960;8.372;2023-05-07T11:59:40;100787.00;;;27.30
20289;BMP180;10303;51.960;8.372;2023-05-07T12:02:07;100776.00;;;27.30
20289;BMP180;10303;51.960;8.372;2023-05-07T12:04:33;100783.00;;;27.40
20289;BMP180;10303;51.960;8.372;2023-05-07T12:06:59;100781.00;;;27.40
20289;BMP180;10303;51.960;8.372;2023-05-07T12:09:26;100780.00;;;27.60
20289;BMP180;10303;51.960;8.372;2023-05-07T12:11:52;100785.00;;;27.60
20289;BMP180;10303;51.960;8.372;2023-05-07T12:14:18;100776.00;;;27.80
20289;BMP180;10303;51.960;8.372;2023-05-07T12:16:45;100773.00;;;27.80
20289;BMP180;10303;51.960;8.372;2023-05-07T12:19:11;100786.00;;;27.90
20289;BMP180;10303;51.960;8.372;2023-05-07T12:21:38;100781.00;;;27.90
20289;BMP180;10303;51.960;8.372;2023-05-07T12:24:05;100785.00;;;27.90
20289;BMP180;10303;51.960;8.372;2023-05-07T12:26:31;100775.00;;;28.00
20289;BMP180;10303;51.960;8.372;2023-05-07T12:28:58;100782.00;;;28.00
20289;BMP180;10303;51.960;8.372;2023-05-07T12:31:26;100782.00;;;28.10
20289;BMP180;10303;51.960;8.372;2023-05-07T12:33:52;100785.00;;;28.20
20289;BMP180;10303;51.960;8.372;2023-05-07T12:36:18;100784.00;;;28.30
20289;BMP180;10303;51.960;8.372;2023-05-07T12:38:44;100797.00;;;28.40
20289;BMP180;10303;51.960;8.372;2023-05-07T12:41:11;100790.00;;;28.40
20289;BMP180;10303;51.960;8.372;2023-05-07T12:43:38;100792.00;;;28.60
20289;BMP180;10303;51.960;8.372;2023-05-07T12:46:06;100784.00;;;28.70
20289;BMP180;10303;51.960;8.372;2023-05-07T12:48:33;100789.00;;;28.70
20289;BMP180;10303;51.960;8.372;2023-05-07T12:51:01;100795.00;;;28.80
20289;BMP180;10303;51.960;8.372;2023-05-07T12:53:30;100797.00;;;28.90
20289;BMP180;10303;51.960;8.372;2023-05-07T12:55:59;100797.00;;;29.00
20289;BMP180;10303;51.960;8.372;2023-05-07T12:58:32;100811.00;;;29.00
20289;BMP180;10303;51.960;8.372;2023-05-07T13:01:03;100786.00;;;28.90
20289;BMP180;10303;51.960;8.372;2023-05-07T13:03:32;100802.00;;;28.80
20289;BMP180;10303;51.960;8.372;2023-05-07T13:06:07;100793.00;;;28.70
20289;BMP180;10303;51.960;8.372;2023-05-07T13:08:40;100796.00;;;28.60
20289;BMP180;10303;51.960;8.372;2023-05-07T13:11:08;100802.00;;;28.50
20289;BMP180;10303;51.960;8.372;2023-05-07T13:13:37;100805.00;;;28.50
20289;BMP180;10303;51.960;8.372;2023-05-07T13:16:07;100801.00;;;28.50
20289;BMP180;10303;51.960;8.372;2023-05-07T13:18:34;100806.00;;;28.50
20289;BMP180;10303;51.960;8.372;2023-05-07T13:21:01;100797.00;;;28.60
20289;BMP180;10303;51.960;8.372;2023-05-07T13:23:27;100795.00;;;28.60
20289;BMP180;10303;51.960;8.372;2023-05-07T13:25:53;100795.00;;;28.50
20289;BMP180;10303;51.960;8.372;2023-05-07T13:28:20;100797.00;;;28.40
20289;BMP180;10303;51.960;8.372;2023-05-07T13:30:46;100811.00;;;28.30
20289;BMP180;10303;51.960;8.372;2023-05-07T13:33:13;100801.00;;;28.20
20289;BMP180;10303;51.960;8.372;2023-05-07T13:35:39;100808.00;;;28.20
20289;BMP180;10303;51.960;8.372;2023-05-07T13:38:05;100800.00;;;28.20
20289;BMP180;10303;51.960;8.372;2023-05-07T13:40:31;100799.00;;;28.10
20289;BMP180;10303;51.960;8.372;2023-05-07T13:42:58;100799.00;;;28.10
20289;BMP180;10303;51.960;8.372;2023-05-07T13:45:26;100796.00;;;28.10
20289;BMP180;10303;51.960;8.372;2023-05-07T13:47:52;100803.00;;;28.10
20289;BMP180;10303;51.960;8.372;2023-05-07T13:50:18;100808.00;;;28.00
20289;BMP180;10303;51.960;8.372;2023-05-07T13:52:44;100797.00;;;27.90
20289;BMP180;10303;51.960;8.372;2023-05-07T13:55:21;100804.00;;;27.80
20289;BMP180;10303;51.960;8.372;2023-05-07T13:57:57;100797.00;;;27.80
20289;BMP180;10303;51.960;8.372;2023-05-07T14:00:25;100797.00;;;27.80
20289;BMP180;10303;51.960;8.372;2023-05-07T14:02:51;100789.00;;;27.70
20289;BMP180;10303;51.960;8.372;2023-05-07T14:05:17;100788.00;;;27.60
20289;BMP180;10303;51.960;8.372;2023-05-07T14:07:43;100794.00;;;27.50
20289;BMP180;10303;51.960;8.372;2023-05-07T14:10:09;100789.00;;;27.30
20289;BMP180;10303;51.960;8.372;2023-05-07T14:12:37;100798.00;;;27.30
20289;BMP180;10303;51.960;8.372;2023-05-07T14:15:03;100797.00;;;27.20
20289;BMP180;10303;51.960;8.372;2023-05-07T14:17:29;100799.00;;;27.00